sensor_id;sensor_type;location;lat;lon;timestamp;temperature;humidity
21115;DHT22;10715;48.546;9.896;2022-09-21T00:00:45;1.70;99.90
21115;DHT22;10715;48.546;9.896;2022-09-21T00:03:11;1.70;99.90
21115;DHT22;10715;48.546;9.896;2022-09-21T00:05:36;1.60;99.90
21115;DHT22;10715;48.546;9.896;2022-09-21T00:08:04;1.60;99.90
21115;DHT22;10715;48.546;9.896;2022-09-21T00:10:30;1.60;99.90
21115;DHT22;10715;48.546;9.896;2022-09-21T00:12:57;1.60;99.90
21115;DHT22;10715;48.546;9.896;2022-09-21T00:15:24;1.60;99.90
21115;DHT22;10715;48.546;9.896;2022-09-21T00:17:52;1.60;99.90
21115;DHT22;10715;48.546;9.896;2022-09-21T00:20:19;1.60;99.90
21115;DHT22;10715;48.546;9.896;2022-09-21T00:22:46;1.60;99.90
21115;DHT22;10715;48.546;9.896;2022-09-21T00:25:13;1.50;99.90
21115;DHT22;10715;48.546;9.896;2022-09-21T00:27:39;1.40;99.90
21115;DHT22;10715;48.546;9.896;2022-09-21T00:30:05;1.40;99.90
21115;DHT22;10715;48.546;9.896;2022-09-21T00:32:34;1.40;99.90
21115;DHT22;10715;48.546;9.896;2022-09-21T00:35:01;1.30;99.90
21115;DHT22;10715;48.546;9.896;2022-09-21T00:37:29;1.40;99.90
21115;DHT22;10715;48.546;9.896;2022-09-21T00:39:55;1.40;99.90
21115;DHT22;10715;48.546;9.896;2022-09-21T00:42:24;1.40;99.90
21115;DHT22;10715;48.546;9.896;2022-09-21T00:44:50;1.40;99.90
21115;DHT22;10715;48.546;9.896;2022-09-21T00:47:21;1.30;99.90
21115;DHT22;10715;48.546;9.896;2022-09-21T00:49:50;1.30;99.90
21115;DHT22;10715;48.546;9.896;2022-09-21T00:52:19;1.30;99.90
21115;DHT22;10715;48.546;9.896;2022-09-21T00:54:49;1.20;99.90
21115;DHT22;10715;48.546;9.896;2022-09-21T00:57:17;1.20;99.90
21115;DHT22;10715;48.546;9.896;2022-09-21T00:59:44;1.10;99.90
21115;DHT22;10715;48.546;9.896;2022-09-21T01:02:10;1.00;99.90
21115;DHT22;10715;48.546;9.896;2022-09-21T01:04:37;1.00;99.90
21115;DHT22;10715;48.546;9.896;2022-09-21T01:07:06;1.00;99.90
21115;DHT22;10715;48.546;9.896;2022-09-21T01:09:33;1.00;99.90
21115;DHT22;10715;48.546;9.896;2022-09-21T01:15:34;0.90;99.90
21115;DHT22;10715;48.546;9.896;2022-09-21T01:21:20;0.90;99.90
21115;DHT22;10715;48.546;9.896;2022-09-21T01:24:15;0.90;99.90
21115;DHT22;10715;48.546;9.896;2022-09-21T01:30:02;0.80;99.90
21115;DHT22;10715;48.546;9.896;2022-09-21T01:32:35;0.80;99.90
21115;DHT22;10715;48.546;9.896;2022-09-21T01:35:19;0.70;99.90
21115;DHT22;10715;48.546;9.896;2022-09-21T01:37:58;0.70;99.90
21115;DHT22;10715;48.546;9.896;2022-09-21T01:40:32;0.70;99.90
21115;DHT22;10715;48.546;9.896;2022-09-21T01:43:00;0.70;99.90
21115;DHT22;10715;48.546;9.896;2022-09-21T01:45:34;0.70;99.90
21115;DHT22;10715;48.546;9.896;2022-09-21T01:48:01;0.70;99.90
21115;DHT22;10715;48.546;9.896;2022-09-21T01:50:31;0.70;99.90
21115;DHT22;10715;48.546;9.896;2022-09-21T01:53:27;0.70;99.90
21115;DHT22;10715;48.546;9.896;2022-09-21T01:56:02;0.70;99.90
21115;DHT22;10715;48.546;9.896;2022-09-21T02:01:20;0.60;99.90
21115;DHT22;10715;48.546;9.896;2022-09-21T02:03:56;0.60;99.90
21115;DHT22;10715;48.546;9.896;2022-09-21T02:06:27;0.60;99.90
21115;DHT22;10715;48.546;9.896;2022-09-21T02:08:55;0.50;99.90
21115;DHT22;10715;48.546;9.896;2022-09-21T02:11:21;0.50;99.90
21115;DHT22;10715;48.546;9.896;2022-09-21T02:13:49;0.50;99.90
21115;DHT22;10715;48.546;9.896;2022-09-21T02:16:37;0.50;99.90
21115;DHT22;10715;48.546;9.896;2022-09-21T02:19:39;0.50;99.90
21115;DHT22;10715;48.546;9.896;2022-09-21T02:24:49;0.40;99.90
21115;DHT22;10715;48.546;9.896;2022-09-21T02:27:31;0.40;99.90
21115;DHT22;10715;48.546;9.896;2022-09-21T02:30:15;0.40;99.90
21115;DHT22;10715;48.546;9.896;2022-09-21T02:32:54;0.40;99.90
21115;DHT22;10715;48.546;9.896;2022-09-21T02:43:26;0.20;99.90
21115;DHT22;10715;48.546;9.896;2022-09-21T02:45:59;0.30;99.90
21115;DHT22;10715;48.546;9.896;2022-09-21T02:48:39;0.20;99.90
21115;DHT22;10715;48.546;9.896;2022-09-21T02:51:14;0.20;99.90
21115;DHT22;10715;48.546;9.896;2022-09-21T02:53:42;0.20;99.90
21115;DHT22;10715;48.546;9.896;2022-09-21T02:56:09;0.20;99.90
21115;DHT22;10715;48.546;9.896;2022-09-21T02:58:44;0.20;99.90
21115;DHT22;10715;48.546;9.896;2022-09-21T03:01:12;0.10;99.90
21115;DHT22;10715;48.546;9.896;2022-09-21T03:03:39;0.10;99.90
21115;DHT22;10715;48.546;9.896;2022-09-21T03:06:05;0.10;99.90
21115;DHT22;10715;48.546;9.896;2022-09-21T03:08:31;0.10;99.90
21115;DHT22;10715;48.546;9.896;2022-09-21T03:10:57;0.10;99.90
21115;DHT22;10715;48.546;9.896;2022-09-21T03:13:23;0.10;99.90
21115;DHT22;10715;48.546;9.896;2022-09-21T03:15:49;0.10;99.90
21115;DHT22;10715;48.546;9.896;2022-09-21T03:18:23;0.10;99.90
21115;DHT22;10715;48.546;9.896;2022-09-21T03:20:49;0.00;99.90
21115;DHT22;10715;48.546;9.896;2022-09-21T03:23:14;0.00;99.90
21115;DHT22;10715;48.546;9.896;2022-09-21T03:25:43;0.00;99.90
21115;DHT22;10715;48.546;9.896;2022-09-21T03:28:10;0.00;99.90
21115;DHT22;10715;48.546;9.896;2022-09-21T03:30:37;0.00;99.90
21115;DHT22;10715;48.546;9.896;2022-09-21T03:33:02;0.00;99.90
21115;DHT22;10715;48.546;9.896;2022-09-21T03:35:31;0.00;99.90
21115;DHT22;10715;48.546;9.896;2022-09-21T03:38:00;0.00;99.90
21115;DHT22;10715;48.546;9.896;2022-09-21T03:40:26;0.00;99.90
21115;DHT22;10715;48.546;9.896;2022-09-21T03:42:53;0.00;99.90
21115;DHT22;10715;48.546;9.896;2022-09-21T03:45:19;-0.10;99.90
21115;DHT22;10715;48.546;9.896;2022-09-21T03:47:49;-0.10;99.90
21115;DHT22;10715;48.546;9.896;2022-09-21T03:50:15;-0.10;99.90
21115;DHT22;10715;48.546;9.896;2022-09-21T03:52:40;-0.10;99.90
21115;DHT22;10715;48.546;9.896;2022-09-21T03:55:08;-0.20;99.90
21115;DHT22;10715;48.546;9.896;2022-09-21T03:57:34;-0.20;99.90
21115;DHT22;10715;48.546;9.896;2022-09-21T04:00:02;-0.20;99.90
21115;DHT22;10715;48.546;9.896;2022-09-21T04:02:29;-0.20;99.90
21115;DHT22;10715;48.546;9.896;2022-09-21T04:04:55;-0.30;99.90
21115;DHT22;10715;48.546;9.896;2022-09-21T04:07:20;-0.30;99.90
21115;DHT22;10715;48.546;9.896;2022-09-21T04:09:46;-0.30;99.90
21115;DHT22;10715;48.546;9.896;2022-09-21T04:12:12;-0.30;99.90
21115;DHT22;10715;48.546;9.896;2022-09-21T04:14:37;-0.40;99.90
21115;DHT22;10715;48.546;9.896;2022-09-21T04:17:03;-0.40;99.90
21115;DHT22;10715;48.546;9.896;2022-09-21T04:19:29;-0.40;99.90
21115;DHT22;10715;48.546;9.896;2022-09-21T04:21:55;-0.40;99.90
21115;DHT22;10715;48.546;9.896;2022-09-21T04:24:22;-0.40;99.90
21115;DHT22;10715;48.546;9.896;2022-09-21T04:26:47;-0.40;99.90
21115;DHT22;10715;48.546;9.896;2022-09-21T04:29:14;-0.40;99.90
21115;DHT22;10715;48.546;9.896;2022-09-21T04:31:40;-0.40;99.90
21115;DHT22;10715;48.546;9.896;2022-09-21T04:34:05;-0.50;99.90
21115;DHT22;10715;48.546;9.896;2022-09-21T04:36:31;-0.50;99.90
21115;DHT22;10715;48.546;9.896;2022-09-21T04:38:59;-0.50;99.90
21115;DHT22;10715;48.546;9.896;2022-09-21T04:41:25;-0.50;99.90
21115;DHT22;10715;48.546;9.896;2022-09-21T04:43:51;-0.50;99.90
21115;DHT22;10715;48.546;9.896;2022-09-21T04:46:19;-0.50;99.90
21115;DHT22;10715;48.546;9.896;2022-09-21T04:48:45;-0.50;99.90
21115;DHT22;10715;48.546;9.896;2022-09-21T04:51:12;-0.50;99.90
21115;DHT22;10715;48.546;9.896;2022-09-21T04:53:39;-0.50;99.90
21115;DHT22;10715;48.546;9.896;2022-09-21T04:56:11;-0.60;99.90
21115;DHT22;10715;48.546;9.896;2022-09-21T04:58:37;-0.60;99.90
21115;DHT22;10715;48.546;9.896;2022-09-21T05:01:03;-0.50;99.90
21115;DHT22;10715;48.546;9.896;2022-09-21T05:03:31;-0.60;99.90
21115;DHT22;10715;48.546;9.896;2022-09-21T05:05:57;-0.60;99.90
21115;DHT22;10715;48.546;9.896;2022-09-21T05:08:25;-0.60;99.90
21115;DHT22;10715;48.546;9.896;2022-09-21T05:11:12;-0.60;99.90
21115;DHT22;10715;48.546;9.896;2022-09-21T05:13:39;-0.50;99.90
21115;DHT22;10715;48.546;9.896;2022-09-21T05:16:05;-0.50;99.90
21115;DHT22;10715;48.546;9.896;2022-09-21T05:18:31;-0.50;99.90
21115;DHT22;10715;48.546;9.896;2022-09-21T05:20:58;-0.50;99.90
21115;DHT22;10715;48.546;9.896;2022-09-21T05:23:25;-0.50;99.90
21115;DHT22;10715;48.546;9.896;2022-09-21T05:25:51;-0.40;99.90
21115;DHT22;10715;48.546;9.896;2022-09-21T05:28:18;-0.40;99.90
21115;DHT22;10715;48.546;9.896;2022-09-21T05:33:34;-0.30;99.90
21115;DHT22;10715;48.546;9.896;2022-09-21T05:38:49;-0.20;99.90
21115;DHT22;10715;48.546;9.896;2022-09-21T05:41:15;-0.20;99.90
21115;DHT22;10715;48.546;9.896;2022-09-21T05:43:41;-0.20;99.90
21115;DHT22;10715;48.546;9.896;2022-09-21T05:46:36;-0.10;99.90
21115;DHT22;10715;48.546;9.896;2022-09-21T06:00:10;0.10;99.90
21115;DHT22;10715;48.546;9.896;2022-09-21T06:05:42;0.30;99.90
21115;DHT22;10715;48.546;9.896;2022-09-21T06:08:08;0.30;99.90
21115;DHT22;10715;48.546;9.896;2022-09-21T06:10:34;0.40;99.90
21115;DHT22;10715;48.546;9.896;2022-09-21T06:13:00;0.50;99.90
21115;DHT22;10715;48.546;9.896;2022-09-21T06:15:26;0.60;99.90
21115;DHT22;10715;48.546;9.896;2022-09-21T06:17:52;0.60;99.90
21115;DHT22;10715;48.546;9.896;2022-09-21T06:20:18;0.70;99.90
21115;DHT22;10715;48.546;9.896;2022-09-21T06:22:44;0.80;99.90
21115;DHT22;10715;48.546;9.896;2022-09-21T06:25:09;0.90;99.90
21115;DHT22;10715;48.546;9.896;2022-09-21T06:27:35;0.90;99.90
21115;DHT22;10715;48.546;9.896;2022-09-21T06:30:01;1.00;99.90
21115;DHT22;10715;48.546;9.896;2022-09-21T06:32:27;1.10;99.90
21115;DHT22;10715;48.546;9.896;2022-09-21T06:34:53;1.10;99.90
21115;DHT22;10715;48.546;9.896;2022-09-21T06:37:18;1.20;99.90
21115;DHT22;10715;48.546;9.896;2022-09-21T06:39:44;1.30;99.90
21115;DHT22;10715;48.546;9.896;2022-09-21T06:42:10;1.40;99.90
21115;DHT22;10715;48.546;9.896;2022-09-21T06:44:35;1.40;99.90
21115;DHT22;10715;48.546;9.896;2022-09-21T06:47:01;1.50;99.90
21115;DHT22;10715;48.546;9.896;2022-09-21T06:49:27;1.60;99.90
21115;DHT22;10715;48.546;9.896;2022-09-21T06:51:54;1.70;99.90
21115;DHT22;10715;48.546;9.896;2022-09-21T06:54:19;1.80;99.90
21115;DHT22;10715;48.546;9.896;2022-09-21T06:56:45;1.90;99.90
21115;DHT22;10715;48.546;9.896;2022-09-21T06:59:11;2.10;99.90
21115;DHT22;10715;48.546;9.896;2022-09-21T07:01:37;2.20;99.90
21115;DHT22;10715;48.546;9.896;2022-09-21T07:04:03;2.30;99.90
21115;DHT22;10715;48.546;9.896;2022-09-21T07:06:29;2.50;99.90
21115;DHT22;10715;48.546;9.896;2022-09-21T07:08:55;2.60;99.90
21115;DHT22;10715;48.546;9.896;2022-09-21T07:11:21;2.80;99.90
21115;DHT22;10715;48.546;9.896;2022-09-21T07:13:48;2.90;99.90
21115;DHT22;10715;48.546;9.896;2022-09-21T07:16:15;3.10;99.90
21115;DHT22;10715;48.546;9.896;2022-09-21T07:18:41;3.30;99.90
21115;DHT22;10715;48.546;9.896;2022-09-21T07:21:09;3.40;99.90
21115;DHT22;10715;48.546;9.896;2022-09-21T07:23:36;3.50;99.90
21115;DHT22;10715;48.546;9.896;2022-09-21T07:26:04;3.70;99.90
21115;DHT22;10715;48.546;9.896;2022-09-21T07:28:30;3.80;99.90
21115;DHT22;10715;48.546;9.896;2022-09-21T07:30:57;4.00;99.90
21115;DHT22;10715;48.546;9.896;2022-09-21T07:33:24;4.10;99.90
21115;DHT22;10715;48.546;9.896;2022-09-21T07:35:51;4.30;99.90
21115;DHT22;10715;48.546;9.896;2022-09-21T07:38:17;4.60;99.90
21115;DHT22;10715;48.546;9.896;2022-09-21T07:40:43;4.90;99.90
21115;DHT22;10715;48.546;9.896;2022-09-21T07:43:08;5.30;99.90
21115;DHT22;10715;48.546;9.896;2022-09-21T07:45:34;5.70;99.90
21115;DHT22;10715;48.546;9.896;2022-09-21T07:48:04;6.00;99.90
21115;DHT22;10715;48.546;9.896;2022-09-21T07:50:31;6.30;99.90
21115;DHT22;10715;48.546;9.896;2022-09-21T07:52:59;6.60;99.90
21115;DHT22;10715;48.546;9.896;2022-09-21T07:55:25;6.80;99.90
21115;DHT22;10715;48.546;9.896;2022-09-21T07:57:51;6.90;99.90
21115;DHT22;10715;48.546;9.896;2022-09-21T08:00:35;7.10;99.90
21115;DHT22;10715;48.546;9.896;2022-09-21T08:03:03;7.30;99.90
21115;DHT22;10715;48.546;9.896;2022-09-21T08:05:29;7.50;99.90
21115;DHT22;10715;48.546;9.896;2022-09-21T08:07:55;7.70;99.90
21115;DHT22;10715;48.546;9.896;2022-09-21T08:10:22;7.90;99.90
21115;DHT22;10715;48.546;9.896;2022-09-21T08:12:48;8.20;99.90
21115;DHT22;10715;48.546;9.896;2022-09-21T08:15:14;8.40;99.90
21115;DHT22;10715;48.546;9.896;2022-09-21T08:17:40;8.60;99.90
21115;DHT22;10715;48.546;9.896;2022-09-21T08:20:06;8.90;99.90
21115;DHT22;10715;48.546;9.896;2022-09-21T08:22:32;9.00;99.90
21115;DHT22;10715;48.546;9.896;2022-09-21T08:24:57;9.20;99.90
21115;DHT22;10715;48.546;9.896;2022-09-21T08:27:23;9.40;99.90
21115;DHT22;10715;48.546;9.896;2022-09-21T08:29:51;9.60;99.90
21115;DHT22;10715;48.546;9.896;2022-09-21T08:32:17;9.80;99.90
21115;DHT22;10715;48.546;9.896;2022-09-21T08:34:43;10.10;99.90
21115;DHT22;10715;48.546;9.896;2022-09-21T08:37:08;10.30;99.90
21115;DHT22;10715;48.546;9.896;2022-09-21T08:39:34;10.50;99.90
21115;DHT22;10715;48.546;9.896;2022-09-21T08:44:57;10.90;99.90
21115;DHT22;10715;48.546;9.896;2022-09-21T08:47:35;10.80;99.90
21115;DHT22;10715;48.546;9.896;2022-09-21T08:50:03;10.70;99.90
21115;DHT22;10715;48.546;9.896;2022-09-21T08:52:31;10.60;99.90
21115;DHT22;10715;48.546;9.896;2022-09-21T08:55:00;10.60;99.90
21115;DHT22;10715;48.546;9.896;2022-09-21T08:57:32;10.50;99.90
21115;DHT22;10715;48.546;9.896;2022-09-21T08:59:59;10.50;99.90
21115;DHT22;10715;48.546;9.896;2022-09-21T09:02:32;10.50;99.90
21115;DHT22;10715;48.546;9.896;2022-09-21T09:08:35;10.80;99.90
21115;DHT22;10715;48.546;9.896;2022-09-21T09:10:53;11.10;99.90
21115;DHT22;10715;48.546;9.896;2022-09-21T09:15:48;11.90;99.90
21115;DHT22;10715;48.546;9.896;2022-09-21T09:18:23;12.60;99.90
21115;DHT22;10715;48.546;9.896;2022-09-21T09:21:17;15.00;99.90
21115;DHT22;10715;48.546;9.896;2022-09-21T09:23:55;17.90;99.90
21115;DHT22;10715;48.546;9.896;2022-09-21T09:31:58;23.40;81.50
21115;DHT22;10715;48.546;9.896;2022-09-21T09:34:32;24.40;75.70
21115;DHT22;10715;48.546;9.896;2022-09-21T09:37:14;25.80;70.90
21115;DHT22;10715;48.546;9.896;2022-09-21T09:39:43;25.80;65.80
21115;DHT22;10715;48.546;9.896;2022-09-21T09:45:51;25.80;66.10
21115;DHT22;10715;48.546;9.896;2022-09-21T09:48:39;25.00;64.30
21115;DHT22;10715;48.546;9.896;2022-09-21T09:51:12;22.50;68.20
21115;DHT22;10715;48.546;9.896;2022-09-21T09:53:38;20.40;76.00
21115;DHT22;10715;48.546;9.896;2022-09-21T09:56:04;20.70;76.20
21115;DHT22;10715;48.546;9.896;2022-09-21T09:58:50;19.90;77.80
21115;DHT22;10715;48.546;9.896;2022-09-21T10:01:46;18.40;82.20
21115;DHT22;10715;48.546;9.896;2022-09-21T10:04:22;16.90;87.80
21115;DHT22;10715;48.546;9.896;2022-09-21T10:06:48;17.00;85.70
21115;DHT22;10715;48.546;9.896;2022-09-21T10:09:30;16.40;88.20
21115;DHT22;10715;48.546;9.896;2022-09-21T10:12:14;16.00;90.20
21115;DHT22;10715;48.546;9.896;2022-09-21T10:14:47;15.70;91.30
21115;DHT22;10715;48.546;9.896;2022-09-21T10:17:16;15.60;91.90
21115;DHT22;10715;48.546;9.896;2022-09-21T10:19:42;15.00;92.00
21115;DHT22;10715;48.546;9.896;2022-09-21T10:22:15;14.00;93.00
21115;DHT22;10715;48.546;9.896;2022-09-21T10:24:48;13.10;95.30
21115;DHT22;10715;48.546;9.896;2022-09-21T10:27:26;12.70;96.60
21115;DHT22;10715;48.546;9.896;2022-09-21T10:29:53;12.40;98.00
21115;DHT22;10715;48.546;9.896;2022-09-21T10:32:28;12.30;98.50
21115;DHT22;10715;48.546;9.896;2022-09-21T10:35:12;12.10;99.90
21115;DHT22;10715;48.546;9.896;2022-09-21T10:37:45;13.10;99.00
21115;DHT22;10715;48.546;9.896;2022-09-21T10:40:24;13.40;98.00
21115;DHT22;10715;48.546;9.896;2022-09-21T10:42:53;13.70;97.50
21115;DHT22;10715;48.546;9.896;2022-09-21T10:45:23;15.40;95.00
21115;DHT22;10715;48.546;9.896;2022-09-21T10:47:55;16.50;92.50
21115;DHT22;10715;48.546;9.896;2022-09-21T10:50:42;17.90;90.70
21115;DHT22;10715;48.546;9.896;2022-09-21T10:58:14;21.40;72.50
21115;DHT22;10715;48.546;9.896;2022-09-21T11:00:46;21.60;72.40
21115;DHT22;10715;48.546;9.896;2022-09-21T11:06:26;23.20;65.20
21115;DHT22;10715;48.546;9.896;2022-09-21T11:09:17;23.30;64.70
21115;DHT22;10715;48.546;9.896;2022-09-21T11:30:38;23.30;60.70
21115;DHT22;10715;48.546;9.896;2022-09-21T11:36:09;19.60;70.10
21115;DHT22;10715;48.546;9.896;2022-09-21T11:41:26;17.00;80.10
21115;DHT22;10715;48.546;9.896;2022-09-21T11:55:09;13.90;90.20
21115;DHT22;10715;48.546;9.896;2022-09-21T11:57:54;13.70;90.50
21115;DHT22;10715;48.546;9.896;2022-09-21T12:00:22;13.40;89.30
21115;DHT22;10715;48.546;9.896;2022-09-21T12:16:42;12.90;92.50
21115;DHT22;10715;48.546;9.896;2022-09-21T12:19:32;13.10;92.00
21115;DHT22;10715;48.546;9.896;2022-09-21T12:22:08;13.20;90.30
21115;DHT22;10715;48.546;9.896;2022-09-21T12:25:01;13.10;90.40
21115;DHT22;10715;48.546;9.896;2022-09-21T12:27:35;12.90;91.40
21115;DHT22;10715;48.546;9.896;2022-09-21T12:30:10;12.90;92.00
21115;DHT22;10715;48.546;9.896;2022-09-21T12:33:00;12.90;92.30
21115;DHT22;10715;48.546;9.896;2022-09-21T12:38:11;12.60;93.10
21115;DHT22;10715;48.546;9.896;2022-09-21T12:43:29;12.70;93.10
21115;DHT22;10715;48.546;9.896;2022-09-21T12:46:18;12.90;93.20
21115;DHT22;10715;48.546;9.896;2022-09-21T12:48:44;12.90;93.40
21115;DHT22;10715;48.546;9.896;2022-09-21T12:51:24;13.00;93.60
21115;DHT22;10715;48.546;9.896;2022-09-21T12:53:53;13.30;93.70
21115;DHT22;10715;48.546;9.896;2022-09-21T12:56:43;13.60;93.50
21115;DHT22;10715;48.546;9.896;2022-09-21T12:59:35;13.80;92.30
21115;DHT22;10715;48.546;9.896;2022-09-21T13:05:19;13.80;92.50
21115;DHT22;10715;48.546;9.896;2022-09-21T13:08:00;13.90;92.00
21115;DHT22;10715;48.546;9.896;2022-09-21T13:13:24;14.30;92.30
21115;DHT22;10715;48.546;9.896;2022-09-21T13:15:52;14.50;92.20
21115;DHT22;10715;48.546;9.896;2022-09-21T13:18:22;14.20;92.50
21115;DHT22;10715;48.546;9.896;2022-09-21T13:20:49;13.70;92.50
21115;DHT22;10715;48.546;9.896;2022-09-21T13:25:58;12.90;94.10
21115;DHT22;10715;48.546;9.896;2022-09-21T13:28:41;13.00;94.30
21115;DHT22;10715;48.546;9.896;2022-09-21T13:33:39;13.40;92.60
21115;DHT22;10715;48.546;9.896;2022-09-21T13:36:28;13.70;92.40
21115;DHT22;10715;48.546;9.896;2022-09-21T13:39:12;13.90;92.60
21115;DHT22;10715;48.546;9.896;2022-09-21T13:41:38;13.60;91.20
21115;DHT22;10715;48.546;9.896;2022-09-21T13:44:19;13.10;91.00
21115;DHT22;10715;48.546;9.896;2022-09-21T13:46:49;12.70;91.40
21115;DHT22;10715;48.546;9.896;2022-09-21T13:49:29;12.40;92.70
21115;DHT22;10715;48.546;9.896;2022-09-21T13:59:47;13.20;91.40
21115;DHT22;10715;48.546;9.896;2022-09-21T14:02:27;13.30;91.00
21115;DHT22;10715;48.546;9.896;2022-09-21T14:05:00;13.50;91.30
21115;DHT22;10715;48.546;9.896;2022-09-21T14:07:29;13.40;91.00
21115;DHT22;10715;48.546;9.896;2022-09-21T14:09:59;13.50;91.10
21115;DHT22;10715;48.546;9.896;2022-09-21T14:12:26;13.60;90.80
21115;DHT22;10715;48.546;9.896;2022-09-21T14:15:30;13.60;90.00
21115;DHT22;10715;48.546;9.896;2022-09-21T14:21:17;13.50;88.90
21115;DHT22;10715;48.546;9.896;2022-09-21T14:29:42;13.30;89.40
21115;DHT22;10715;48.546;9.896;2022-09-21T14:32:21;13.40;88.40
21115;DHT22;10715;48.546;9.896;2022-09-21T14:34:50;13.50;87.70
21115;DHT22;10715;48.546;9.896;2022-09-21T14:37:30;13.50;84.20
21115;DHT22;10715;48.546;9.896;2022-09-21T14:39:58;13.50;84.90
21115;DHT22;10715;48.546;9.896;2022-09-21T14:42:26;13.50;83.10
21115;DHT22;10715;48.546;9.896;2022-09-21T14:44:59;13.50;83.40
21115;DHT22;10715;48.546;9.896;2022-09-21T14:50:41;13.50;84.40
21115;DHT22;10715;48.546;9.896;2022-09-21T14:55:51;13.30;83.10
21115;DHT22;10715;48.546;9.896;2022-09-21T14:58:48;13.20;84.60
21115;DHT22;10715;48.546;9.896;2022-09-21T15:01:36;13.20;86.20
21115;DHT22;10715;48.546;9.896;2022-09-21T15:06:37;13.20;84.50
21115;DHT22;10715;48.546;9.896;2022-09-21T15:12:25;13.10;84.10
21115;DHT22;10715;48.546;9.896;2022-09-21T15:17:58;13.10;81.20
21115;DHT22;10715;48.546;9.896;2022-09-21T15:20:27;13.00;80.00
21115;DHT22;10715;48.546;9.896;2022-09-21T15:22:54;12.90;81.20
21115;DHT22;10715;48.546;9.896;2022-09-21T15:25:21;12.80;78.70
21115;DHT22;10715;48.546;9.896;2022-09-21T15:27:47;12.80;81.10
21115;DHT22;10715;48.546;9.896;2022-09-21T15:30:22;12.70;77.90
21115;DHT22;10715;48.546;9.896;2022-09-21T15:32:54;12.70;79.60
21115;DHT22;10715;48.546;9.896;2022-09-21T15:35:26;12.60;80.60
21115;DHT22;10715;48.546;9.896;2022-09-21T15:37:53;12.60;81.80
21115;DHT22;10715;48.546;9.896;2022-09-21T15:40:20;12.50;82.80
21115;DHT22;10715;48.546;9.896;2022-09-21T15:43:05;12.50;84.20
21115;DHT22;10715;48.546;9.896;2022-09-21T15:48:16;12.40;83.70
21115;DHT22;10715;48.546;9.896;2022-09-21T15:50:47;12.30;82.20
21115;DHT22;10715;48.546;9.896;2022-09-21T15:53:22;12.30;81.00
21115;DHT22;10715;48.546;9.896;2022-09-21T15:55:50;12.20;82.40
21115;DHT22;10715;48.546;9.896;2022-09-21T15:58:37;12.20;82.60
21115;DHT22;10715;48.546;9.896;2022-09-21T16:01:13;12.10;83.50
21115;DHT22;10715;48.546;9.896;2022-09-21T16:03:40;12.00;84.60
21115;DHT22;10715;48.546;9.896;2022-09-21T16:06:27;12.00;85.30
21115;DHT22;10715;48.546;9.896;2022-09-21T16:11:54;11.80;85.80
21115;DHT22;10715;48.546;9.896;2022-09-21T16:14:21;11.60;85.60
21115;DHT22;10715;48.546;9.896;2022-09-21T16:22:11;11.20;86.40
21115;DHT22;10715;48.546;9.896;2022-09-21T16:24:50;11.10;87.40
21115;DHT22;10715;48.546;9.896;2022-09-21T16:27:19;11.00;87.70
21115;DHT22;10715;48.546;9.896;2022-09-21T16:29:46;10.90;86.40
21115;DHT22;10715;48.546;9.896;2022-09-21T16:32:24;10.90;87.70
21115;DHT22;10715;48.546;9.896;2022-09-21T16:34:52;10.80;88.80
21115;DHT22;10715;48.546;9.896;2022-09-21T16:39:45;10.60;90.40
21115;DHT22;10715;48.546;9.896;2022-09-21T16:42:11;10.40;91.70
21115;DHT22;10715;48.546;9.896;2022-09-21T16:44:37;10.30;91.90
21115;DHT22;10715;48.546;9.896;2022-09-21T16:47:13;10.20;91.40
21115;DHT22;10715;48.546;9.896;2022-09-21T16:49:42;10.10;91.80
21115;DHT22;10715;48.546;9.896;2022-09-21T16:52:08;10.00;93.20
21115;DHT22;10715;48.546;9.896;2022-09-21T16:54:35;9.80;93.60
21115;DHT22;10715;48.546;9.896;2022-09-21T16:57:03;9.70;93.10
21115;DHT22;10715;48.546;9.896;2022-09-21T16:59:30;9.60;93.30
21115;DHT22;10715;48.546;9.896;2022-09-21T17:01:58;9.60;93.30
21115;DHT22;10715;48.546;9.896;2022-09-21T17:04:27;9.50;93.80
21115;DHT22;10715;48.546;9.896;2022-09-21T17:06:53;9.40;94.50
21115;DHT22;10715;48.546;9.896;2022-09-21T17:11:50;9.10;96.40
21115;DHT22;10715;48.546;9.896;2022-09-21T17:14:18;9.00;97.20
21115;DHT22;10715;48.546;9.896;2022-09-21T17:16:50;8.80;98.00
21115;DHT22;10715;48.546;9.896;2022-09-21T17:19:17;8.60;98.70
21115;DHT22;10715;48.546;9.896;2022-09-21T17:21:44;8.40;99.50
21115;DHT22;10715;48.546;9.896;2022-09-21T17:24:11;8.30;99.90
21115;DHT22;10715;48.546;9.896;2022-09-21T17:26:37;8.10;99.90
21115;DHT22;10715;48.546;9.896;2022-09-21T17:29:22;7.90;99.90
21115;DHT22;10715;48.546;9.896;2022-09-21T17:31:57;7.80;99.90
21115;DHT22;10715;48.546;9.896;2022-09-21T17:34:27;7.70;99.90
21115;DHT22;10715;48.546;9.896;2022-09-21T17:36:54;7.50;99.90
21115;DHT22;10715;48.546;9.896;2022-09-21T17:39:21;7.30;99.90
21115;DHT22;10715;48.546;9.896;2022-09-21T17:42:11;7.20;99.90
21115;DHT22;10715;48.546;9.896;2022-09-21T17:44:51;7.00;99.90
21115;DHT22;10715;48.546;9.896;2022-09-21T17:47:22;6.90;99.90
21115;DHT22;10715;48.546;9.896;2022-09-21T17:49:49;6.90;99.90
21115;DHT22;10715;48.546;9.896;2022-09-21T17:52:18;6.90;99.90
21115;DHT22;10715;48.546;9.896;2022-09-21T17:55:04;6.80;99.90
21115;DHT22;10715;48.546;9.896;2022-09-21T18:01:02;6.50;99.90
21115;DHT22;10715;48.546;9.896;2022-09-21T18:03:31;6.30;99.90
21115;DHT22;10715;48.546;9.896;2022-09-21T18:06:00;6.20;99.90
21115;DHT22;10715;48.546;9.896;2022-09-21T18:08:31;6.20;99.90
21115;DHT22;10715;48.546;9.896;2022-09-21T18:21:56;5.70;99.90
21115;DHT22;10715;48.546;9.896;2022-09-21T18:24:25;5.60;99.90
21115;DHT22;10715;48.546;9.896;2022-09-21T18:26:58;5.50;99.90
21115;DHT22;10715;48.546;9.896;2022-09-21T18:29:29;5.40;99.90
21115;DHT22;10715;48.546;9.896;2022-09-21T18:41:24;5.30;99.90
21115;DHT22;10715;48.546;9.896;2022-09-21T18:44:03;5.20;99.90
21115;DHT22;10715;48.546;9.896;2022-09-21T18:46:36;5.10;99.90
21115;DHT22;10715;48.546;9.896;2022-09-21T18:54:19;5.10;99.90
21115;DHT22;10715;48.546;9.896;2022-09-21T18:56:45;5.00;99.90
21115;DHT22;10715;48.546;9.896;2022-09-21T18:59:13;5.00;99.90
21115;DHT22;10715;48.546;9.896;2022-09-21T19:01:41;4.90;99.90
21115;DHT22;10715;48.546;9.896;2022-09-21T19:04:07;4.90;99.90
21115;DHT22;10715;48.546;9.896;2022-09-21T19:09:50;4.80;99.90
21115;DHT22;10715;48.546;9.896;2022-09-21T19:15:15;4.60;99.90
21115;DHT22;10715;48.546;9.896;2022-09-21T19:31:50;4.30;99.90
21115;DHT22;10715;48.546;9.896;2022-09-21T19:34:17;4.30;99.90
21115;DHT22;10715;48.546;9.896;2022-09-21T19:36:44;4.20;99.90
21115;DHT22;10715;48.546;9.896;2022-09-21T19:39:12;4.10;99.90
21115;DHT22;10715;48.546;9.896;2022-09-21T19:52:35;3.80;99.90
21115;DHT22;10715;48.546;9.896;2022-09-21T19:55:02;3.70;99.90
21115;DHT22;10715;48.546;9.896;2022-09-21T19:57:47;3.70;99.90
21115;DHT22;10715;48.546;9.896;2022-09-21T20:00:31;3.70;99.90
21115;DHT22;10715;48.546;9.896;2022-09-21T20:03:13;3.60;99.90